Time;durP1;ratioP1;P1;durP2;ratioP2;P2;SDS_P1;SDS_P2;PMS_P1;PMS_P2;Temp;Humidity;BMP_temperature;BMP_pressure;BME280_temperature;BME280_humidity;BME280_pressure;Samples;Min_cycle;Max_cycle;Signal;HPM_P1;HPM_P2
2022/11/08 00:01:55;;;;;;;17.83;3.90;;;13.90;99.90;;;;;;4776373;30;20351;-70
2022/11/08 00:04:22;;;;;;;17.23;3.83;;;14.10;99.90;;;;;;4776538;30;20341;-70
2022/11/08 00:15:01;;;;;;;15.88;4.20;;;14.30;99.90;;;;;;4775120;30;20149;-70
2022/11/08 00:17:28;;;;;;;16.13;3.70;;;14.30;99.90;;;;;;4775991;30;20076;-70
2022/11/08 00:19:54;;;;;;;14.88;3.30;;;14.40;99.90;;;;;;4776177;30;20052;-69
2022/11/08 00:22:21;;;;;;;11.45;3.45;;;14.40;99.90;;;;;;4775941;30;20435;-69
2022/11/08 00:24:46;;;;;;;15.40;3.70;;;14.30;99.90;;;;;;4776236;30;20049;-69
2022/11/08 00:27:18;;;;;;;19.25;3.30;;;14.30;99.90;;;;;;4760084;30;20055;-69
2022/11/08 00:29:43;;;;;;;14.35;3.50;;;14.20;99.90;;;;;;4776053;30;20201;-69
2022/11/08 00:32:14;;;;;;;16.85;4.00;;;14.20;99.90;;;;;;4775742;30;20044;-70
2022/11/08 00:34:40;;;;;;;13.45;3.50;;;14.30;99.90;;;;;;4775552;30;20449;-70
2022/11/08 00:37:06;;;;;;;15.02;3.10;;;14.30;99.90;;;;;;4775762;30;20048;-70
2022/11/08 00:39:32;;;;;;;13.50;3.50;;;14.10;99.90;;;;;;4775958;30;20101;-69
2022/11/08 00:41:58;;;;;;;12.60;3.60;;;14.10;99.90;;;;;;4775674;30;20131;-70
2022/11/08 00:44:23;;;;;;;20.00;3.90;;;14.20;99.90;;;;;;4775655;30;20051;-69
2022/11/08 00:46:49;;;;;;;18.27;3.70;;;14.10;99.90;;;;;;4775365;30;20445;-69
2022/11/08 00:49:15;;;;;;;19.27;3.63;;;14.10;99.90;;;;;;4775716;30;20048;-69
2022/11/08 00:51:41;;;;;;;12.73;3.22;;;14.10;99.90;;;;;;4774538;30;20050;-69
2022/11/08 00:54:10;;;;;;;15.55;3.70;;;14.20;99.90;;;;;;4775525;30;20048;-69
2022/11/08 00:56:35;;;;;;;10.88;3.70;;;14.20;99.90;;;;;;4774704;30;20044;-69
2022/11/08 00:59:01;;;;;;;14.23;3.22;;;14.30;99.90;;;;;;4774538;30;20112;-69
2022/11/08 01:01:27;;;;;;;11.48;3.65;;;14.40;99.90;;;;;;4775109;30;20123;-70
2022/11/08 01:03:52;;;;;;;21.92;4.18;;;14.30;99.90;;;;;;4775197;30;20077;-69
2022/11/08 01:06:20;;;;;;;16.25;3.35;;;14.30;99.90;;;;;;4788829;30;20059;-69
2022/11/08 01:08:48;;;;;;;17.95;4.63;;;14.20;99.90;;;;;;4774892;30;20044;-68
2022/11/08 01:11:24;;;;;;;12.30;3.17;;;14.20;99.90;;;;;;4774405;30;20070;-69
2022/11/08 01:13:50;;;;;;;;;;;14.10;99.90;;;;;;4775850;30;20324;-70
2022/11/08 01:16:20;;;;;;;8.67;3.00;;;14.00;99.90;;;;;;4775054;30;19952;-69
2022/11/08 01:18:47;;;;;;;10.35;3.08;;;14.00;99.90;;;;;;4775040;30;20139;-69
2022/11/08 01:21:13;;;;;;;13.13;3.38;;;13.90;99.90;;;;;;4774198;30;20043;-69
2022/11/08 01:23:39;;;;;;;18.17;2.83;;;13.80;99.90;;;;;;4773955;30;20056;-69
2022/11/08 01:26:07;;;;;;;12.63;3.30;;;13.90;99.90;;;;;;4775117;30;20080;-69
2022/11/08 01:28:35;;;;;;;10.93;3.20;;;13.90;99.90;;;;;;4775110;30;20380;-69
2022/11/08 01:31:05;;;;;;;15.32;2.95;;;13.90;99.90;;;;;;4774688;30;20119;-69
2022/11/08 01:33:31;;;;;;;14.13;3.25;;;13.90;99.90;;;;;;4774974;30;20052;-69
2022/11/08 01:35:57;;;;;;;6.53;2.53;;;13.90;99.90;;;;;;4774408;30;20052;-69
2022/11/08 01:38:23;;;;;;;12.68;2.70;;;13.80;99.90;;;;;;4773810;30;20079;-69
2022/11/08 01:40:49;;;;;;;12.27;3.15;;;13.90;99.90;;;;;;4774919;30;20051;-69
2022/11/08 01:43:41;;;;;;;15.25;3.25;;;13.80;99.90;;;;;;4774569;30;20128;-69
2022/11/08 01:46:31;;;;;;;14.77;3.25;;;13.60;99.90;;;;;;4774996;30;20048;-69
2022/11/08 01:49:02;;;;;;;11.98;2.80;;;13.60;99.90;;;;;;4774592;30;20059;-69
2022/11/08 01:51:43;;;;;;;9.63;2.78;;;13.70;99.90;;;;;;4774553;30;20522;-69
2022/11/08 01:54:12;;;;;;;12.57;2.70;;;13.60;99.90;;;;;;4774651;30;20367;-69
2022/11/08 01:56:39;;;;;;;10.20;2.53;;;13.70;99.90;;;;;;4774430;30;20075;-69
2022/11/08 01:59:08;;;;;;;16.00;3.22;;;13.70;99.90;;;;;;4774424;30;20044;-69
2022/11/08 02:01:34;;;;;;;14.38;2.70;;;13.70;99.90;;;;;;4774464;30;20047;-69
2022/11/08 02:04:01;;;;;;;9.73;2.63;;;13.70;99.90;;;;;;4774052;30;20050;-69
2022/11/08 02:06:29;;;;;;;16.35;3.30;;;13.70;99.90;;;;;;4773788;30;20475;-69
2022/11/08 02:08:59;;;;;;;13.65;3.10;;;13.70;99.90;;;;;;4774015;30;20054;-70
2022/11/08 02:11:26;;;;;;;13.02;3.22;;;13.70;99.90;;;;;;4773475;30;20087;-70
2022/11/08 02:13:52;;;;;;;16.60;3.03;;;13.70;99.90;;;;;;4774207;30;20048;-70
2022/11/08 02:16:18;;;;;;;14.02;3.15;;;13.60;99.90;;;;;;4774157;30;20051;-71
2022/11/08 02:18:45;;;;;;;16.02;3.45;;;13.60;99.90;;;;;;4774120;30;20055;-70
2022/11/08 02:21:46;;;;;;;10.43;2.58;;;13.60;99.90;;;;;;4774268;30;20044;-69
2022/11/08 02:24:13;;;;;;;16.42;2.78;;;13.40;99.90;;;;;;4773019;30;20055;-69
2022/11/08 02:26:39;;;;;;;13.88;3.13;;;13.40;99.90;;;;;;4774154;30;20051;-69
2022/11/08 02:29:31;;;;;;;15.90;2.85;;;13.40;99.90;;;;;;4773616;30;20097;-69
2022/11/08 02:31:58;;;;;;;17.83;2.90;;;13.40;99.90;;;;;;4773969;30;20049;-69
2022/11/08 02:34:30;;;;;;;11.27;2.83;;;13.20;99.90;;;;;;4773997;30;20048;-70
2022/11/08 02:36:57;;;;;;;12.73;2.85;;;13.30;99.90;;;;;;4773331;30;20442;-69
2022/11/08 02:39:23;;;;;;;15.80;3.30;;;13.20;99.90;;;;;;4772678;30;20052;-69
2022/11/08 02:41:48;;;;;;;14.00;3.22;;;13.30;99.90;;;;;;4773807;30;20134;-69
2022/11/08 02:44:14;;;;;;;13.88;3.20;;;13.10;99.90;;;;;;4773928;30;20058;-69
2022/11/08 02:46:40;;;;;;;13.10;2.67;;;13.10;99.90;;;;;;4773641;30;20406;-69
2022/11/08 02:49:05;;;;;;;11.68;3.10;;;13.00;99.90;;;;;;4773745;30;20429;-69
2022/11/08 02:51:31;;;;;;;12.13;2.90;;;13.10;99.90;;;;;;4773673;30;20048;-69
2022/11/08 02:53:57;;;;;;;16.85;3.60;;;13.00;99.90;;;;;;4772768;30;20089;-69
2022/11/08 02:56:23;;;;;;;10.85;2.55;;;13.00;99.90;;;;;;4773555;30;20105;-69
2022/11/08 02:58:48;;;;;;;12.10;3.10;;;13.00;99.90;;;;;;4772477;30;20051;-69
2022/11/08 03:01:14;;;;;;;11.30;3.10;;;13.10;99.90;;;;;;4773645;30;20126;-69
2022/11/08 03:03:40;;;;;;;13.20;3.28;;;13.00;99.90;;;;;;4773420;30;20457;-69
2022/11/08 03:06:05;;;;;;;14.95;3.35;;;13.10;99.90;;;;;;4773254;30;20140;-69
2022/11/08 03:08:31;;;;;;;13.48;3.05;;;13.00;99.90;;;;;;4773338;30;20101;-69
2022/11/08 03:10:59;;;;;;;12.02;3.28;;;13.00;99.90;;;;;;4773051;30;20060;-69
2022/11/08 03:13:25;;;;;;;13.68;3.25;;;13.00;99.90;;;;;;4773598;30;20046;-69
2022/11/08 03:15:50;;;;;;;17.60;3.35;;;13.00;99.90;;;;;;4772632;30;20397;-69
2022/11/08 03:18:16;;;;;;;10.82;3.83;;;13.00;99.90;;;;;;4772259;30;20044;-69
2022/11/08 03:20:42;;;;;;;14.02;3.30;;;12.90;99.90;;;;;;4773315;30;20062;-69
2022/11/08 03:23:07;;;;;;;16.52;3.10;;;12.90;99.90;;;;;;4773377;30;20065;-70
2022/11/08 03:25:34;;;;;;;17.55;3.22;;;12.90;99.90;;;;;;4772254;30;20050;-69
2022/11/08 03:28:05;;;;;;;7.60;2.70;;;12.90;99.90;;;;;;4773043;30;20110;-69
2022/11/08 03:30:31;;;;;;;9.98;3.03;;;12.90;99.90;;;;;;4773061;30;20052;-69
2022/11/08 03:32:56;;;;;;;14.50;2.97;;;12.80;99.90;;;;;;4771926;30;20048;-69
2022/11/08 03:35:22;;;;;;;19.35;3.85;;;12.70;99.90;;;;;;4772891;30;20048;-69
2022/11/08 03:37:55;;;;;;;11.65;3.10;;;12.80;99.90;;;;;;4773052;30;20036;-69
2022/11/08 03:40:21;;;;;;;10.75;3.00;;;12.80;99.90;;;;;;4773221;30;20070;-69
2022/11/08 03:42:47;;;;;;;13.13;3.50;;;12.80;99.90;;;;;;4773127;30;20056;-69
2022/11/08 03:45:14;;;;;;;13.95;3.05;;;12.80;99.90;;;;;;4772369;30;20519;-69
2022/11/08 03:47:42;;;;;;;9.07;3.30;;;12.70;99.90;;;;;;4773027;30;20058;-69
2022/11/08 03:50:09;;;;;;;11.25;2.88;;;12.70;99.90;;;;;;4772169;30;20056;-69
2022/11/08 03:52:42;;;;;;;10.68;2.92;;;12.60;99.90;;;;;;4773053;30;20048;-69
2022/11/08 03:55:09;;;;;;;13.25;3.00;;;12.60;99.90;;;;;;4773025;30;20039;-69
2022/11/08 03:57:36;;;;;;;12.52;3.22;;;12.60;99.90;;;;;;4773103;30;20052;-69
2022/11/08 04:00:02;;;;;;;14.57;3.30;;;12.50;99.90;;;;;;4772959;30;20127;-70
2022/11/08 04:02:28;;;;;;;15.82;3.40;;;12.60;99.90;;;;;;4773001;30;20039;-69
2022/11/08 04:04:54;;;;;;;17.25;3.10;;;12.60;99.90;;;;;;4772629;30;20070;-70
2022/11/08 04:07:19;;;;;;;12.75;2.95;;;12.50;99.90;;;;;;4772093;30;20102;-69
2022/11/08 04:09:45;;;;;;;10.98;3.10;;;12.60;99.90;;;;;;4772920;30;20064;-70
2022/11/08 04:23:13;;;;;;;10.27;3.08;;;12.60;99.90;;;;;;4763248;30;20055;-69
2022/11/08 04:25:39;;;;;;;11.52;3.70;;;12.60;99.90;;;;;;4773160;30;20098;-70
2022/11/08 04:28:05;;;;;;;13.68;3.60;;;12.50;99.90;;;;;;4776160;30;20054;-69
2022/11/08 04:30:31;;;;;;;16.23;3.53;;;12.60;99.90;;;;;;4774872;30;20364;-69
2022/11/08 04:33:01;;;;;;;20.65;3.92;;;12.60;99.90;;;;;;4775878;30;20051;-69
2022/11/08 04:35:28;;;;;;;16.70;3.22;;;12.60;99.90;;;;;;4774620;30;20367;-69
2022/11/08 04:37:59;;;;;;;16.42;4.03;;;12.50;99.90;;;;;;4776037;30;20059;-69
2022/11/08 04:40:28;;;;;;;12.88;3.22;;;12.50;99.90;;;;;;4775683;30;20059;-69
2022/11/08 04:42:54;;;;;;;10.32;2.75;;;12.40;99.90;;;;;;4775945;30;20130;-69
2022/11/08 04:45:19;;;;;;;9.80;3.22;;;12.40;99.90;;;;;;4774700;30;20453;-69
2022/11/08 04:47:46;;;;;;;21.25;3.70;;;12.40;99.90;;;;;;4775721;30;20052;-70
2022/11/08 04:50:12;;;;;;;14.38;3.97;;;12.40;99.90;;;;;;4775624;30;20126;-69
2022/11/08 04:52:37;;;;;;;13.20;3.50;;;12.40;99.90;;;;;;4775569;30;20347;-69
2022/11/08 04:55:03;;;;;;;10.70;3.40;;;12.40;99.90;;;;;;4774631;30;20039;-69
2022/11/08 04:57:29;;;;;;;10.02;2.60;;;12.40;99.90;;;;;;4775496;30;20075;-69
2022/11/08 04:59:54;;;;;;;7.75;3.15;;;12.50;99.90;;;;;;4774631;30;20048;-69
2022/11/08 05:02:20;;;;;;;15.02;3.30;;;12.50;99.90;;;;;;4774347;30;20066;-69
2022/11/08 05:04:46;;;;;;;11.40;3.55;;;12.40;99.90;;;;;;4775136;30;20334;-69
2022/11/08 05:07:11;;;;;;;11.10;3.17;;;12.40;99.90;;;;;;4775225;30;20407;-69
2022/11/08 05:09:37;;;;;;;12.10;3.17;;;12.40;99.90;;;;;;4774067;30;20091;-69
2022/11/08 05:12:03;;;;;;;14.98;3.92;;;12.40;99.90;;;;;;4774496;30;20086;-69
2022/11/08 05:14:29;;;;;;;14.30;4.00;;;12.40;99.90;;;;;;4775108;30;20450;-69
2022/11/08 05:16:54;;;;;;;19.02;3.20;;;12.40;99.90;;;;;;4775274;30;20051;-69
2022/11/08 05:23:22;;;;;;;6.45;2.65;;;12.50;99.90;;;;;;4775037;30;20101;-70
2022/11/08 05:24:52;;;;;;;6.95;2.47;;;12.40;99.90;;;;;;4775346;30;20120;-69
2022/11/08 05:27:17;;;;;;;10.15;3.08;;;12.40;99.90;;;;;;4775035;30;20075;-69
2022/11/08 05:29:43;;;;;;;10.27;2.70;;;12.40;99.90;;;;;;4775051;30;20406;-69
2022/11/08 05:32:09;;;;;;;6.88;2.95;;;12.40;99.90;;;;;;4775012;30;20130;-69
2022/11/08 05:34:34;;;;;;;11.90;3.60;;;12.40;99.90;;;;;;4774747;30;20388;-70
2022/11/08 05:37:00;;;;;;;11.23;3.40;;;12.40;99.90;;;;;;4774247;30;20043;-69
2022/11/08 05:39:25;;;;;;;14.63;3.05;;;12.30;99.90;;;;;;4774526;30;20484;-70
2022/11/08 05:41:51;;;;;;;10.10;3.40;;;12.30;99.90;;;;;;4774954;30;20070;-69
2022/11/08 05:44:17;;;;;;;9.13;2.67;;;12.40;99.90;;;;;;4773570;30;20346;-69
2022/11/08 05:46:42;;;;;;;11.90;3.03;;;12.40;99.90;;;;;;4774611;30;20350;-69
2022/11/08 05:49:08;;;;;;;16.23;2.75;;;12.20;99.90;;;;;;4774476;30;20054;-70
2022/11/08 05:51:34;;;;;;;13.02;2.83;;;12.30;99.90;;;;;;4773772;30;20434;-69
2022/11/08 05:53:59;;;;;;;9.13;2.72;;;12.30;99.90;;;;;;4773494;30;20074;-69
2022/11/08 05:56:26;;;;;;;8.93;2.78;;;12.30;99.90;;;;;;4773573;30;20079;-69
2022/11/08 05:58:52;;;;;;;7.30;2.72;;;12.20;99.90;;;;;;4774325;30;20121;-69
2022/11/08 06:01:19;;;;;;;10.63;2.67;;;12.10;99.90;;;;;;4773486;30;20089;-69
2022/11/08 06:03:46;;;;;;;9.50;2.58;;;12.10;99.90;;;;;;4774503;30;20047;-69
2022/11/08 06:06:20;;;;;;;8.40;2.45;;;12.10;99.90;;;;;;4773992;30;20349;-69
2022/11/08 06:08:46;;;;;;;12.85;2.58;;;12.30;99.90;;;;;;4774400;30;20086;-68
2022/11/08 06:11:13;;;;;;;8.98;2.55;;;12.30;99.90;;;;;;4773092;30;20114;-69
2022/11/08 06:13:40;;;;;;;13.27;2.85;;;12.30;99.90;;;;;;4774231;30;20105;-69
2022/11/08 06:16:08;;;;;;;14.88;3.28;;;12.40;99.90;;;;;;4774102;30;20048;-69
2022/11/08 06:18:34;;;;;;;6.30;2.17;;;12.30;99.90;;;;;;4774149;30;20617;-70
2022/11/08 06:21:01;;;;;;;5.97;2.50;;;12.40;99.90;;;;;;4774260;30;20051;-69
2022/11/08 06:23:27;;;;;;;10.05;2.80;;;12.30;99.90;;;;;;4774300;30;20086;-69
2022/11/08 06:25:54;;;;;;;8.20;2.28;;;12.20;99.90;;;;;;4774182;30;20051;-69
2022/11/08 06:28:20;;;;;;;9.45;2.60;;;12.30;99.90;;;;;;4773925;30;20049;-69
2022/11/08 06:30:46;;;;;;;8.95;2.42;;;12.30;99.90;;;;;;4773726;30;20051;-70
2022/11/08 06:33:12;;;;;;;7.68;2.58;;;12.40;99.90;;;;;;4773077;30;20047;-70
2022/11/08 06:35:37;;;;;;;9.50;2.60;;;12.40;99.90;;;;;;4772769;30;20445;-69
2022/11/08 06:38:03;;;;;;;12.20;3.08;;;12.30;99.90;;;;;;4773690;30;20051;-69
2022/11/08 06:40:31;;;;;;;9.02;2.80;;;12.20;99.90;;;;;;4773888;30;20189;-69
2022/11/08 06:42:57;;;;;;;13.05;2.70;;;12.30;99.90;;;;;;4773677;30;20082;-69
2022/11/08 06:45:26;;;;;;;15.13;2.65;;;12.30;99.90;;;;;;4773815;30;20058;-70
2022/11/08 06:47:59;;;;;;;12.07;2.58;;;12.40;99.90;;;;;;4773864;30;20054;-69
2022/11/08 06:50:27;;;;;;;8.73;2.15;;;12.40;99.90;;;;;;4771699;30;20071;-69
2022/11/08 06:53:04;;;;;;;8.80;2.08;;;12.40;99.90;;;;;;4772831;30;20132;-69
2022/11/08 06:55:30;;;;;;;9.77;2.20;;;12.30;99.90;;;;;;4773521;30;20056;-69
2022/11/08 06:57:56;;;;;;;10.63;2.58;;;12.20;99.90;;;;;;4773541;30;20035;-69
2022/11/08 07:00:22;;;;;;;9.73;2.47;;;12.20;99.90;;;;;;4773736;30;20079;-69
2022/11/08 07:02:52;;;;;;;8.45;2.05;;;12.20;99.90;;;;;;4757902;30;20054;-69
2022/11/08 07:05:18;;;;;;;12.65;2.40;;;12.30;99.90;;;;;;4773169;30;20047;-69
2022/11/08 07:07:44;;;;;;;12.93;2.47;;;12.30;99.90;;;;;;4773357;30;20134;-69
2022/11/08 07:10:10;;;;;;;15.43;2.80;;;12.40;99.90;;;;;;4772242;30;20155;-69
2022/11/08 07:12:35;;;;;;;9.82;2.50;;;12.40;99.90;;;;;;4772237;30;20054;-69
2022/11/08 07:15:02;;;;;;;5.80;1.92;;;12.40;99.90;;;;;;4773620;30;20121;-69
2022/11/08 07:17:28;;;;;;;11.95;2.35;;;12.50;99.90;;;;;;4773172;30;20118;-69
2022/11/08 07:19:53;;;;;;;10.57;2.30;;;12.50;99.90;;;;;;4773329;30;20101;-69
2022/11/08 07:22:19;;;;;;;10.10;2.25;;;12.50;99.90;;;;;;4772562;30;20323;-69
2022/11/08 07:24:44;;;;;;;6.05;2.22;;;12.40;99.90;;;;;;4773226;30;20051;-69
2022/11/08 07:27:10;;;;;;;10.50;2.42;;;12.50;99.90;;;;;;4773420;30;20063;-69
2022/11/08 07:29:36;;;;;;;6.50;2.20;;;12.50;99.90;;;;;;4772951;30;20500;-69
2022/11/08 07:32:01;;;;;;;7.68;2.80;;;12.60;99.90;;;;;;4773277;30;20051;-69
2022/11/08 07:34:27;;;;;;;9.32;2.22;;;12.50;99.90;;;;;;4773380;30;20044;-69
2022/11/08 07:36:52;;;;;;;8.15;2.53;;;12.50;99.90;;;;;;4772748;30;20067;-69
2022/11/08 07:39:18;;;;;;;8.15;2.40;;;12.40;99.90;;;;;;4772968;30;20044;-69
2022/11/08 07:41:44;;;;;;;9.70;2.97;;;12.40;99.90;;;;;;4773119;30;20055;-69
2022/11/08 07:44:09;;;;;;;6.65;2.40;;;12.50;99.90;;;;;;4771937;30;20048;-69
2022/11/08 07:46:35;;;;;;;7.53;2.50;;;12.50;99.90;;;;;;4773176;30;20050;-69
2022/11/08 07:49:00;;;;;;;8.07;2.08;;;12.60;99.90;;;;;;4773299;30;20044;-69
2022/11/08 07:51:26;;;;;;;7.45;2.20;;;12.50;99.90;;;;;;4773048;30;20349;-69
2022/11/08 07:53:52;;;;;;;5.18;2.08;;;12.60;99.90;;;;;;4773258;30;20446;-69
2022/11/08 07:56:17;;;;;;;12.23;2.10;;;12.60;99.90;;;;;;4773147;30;20611;-71
2022/11/08 07:58:43;;;;;;;8.05;2.30;;;12.70;99.90;;;;;;4772920;30;20087;-69
2022/11/08 08:01:09;;;;;;;10.13;2.38;;;12.70;99.90;;;;;;4788043;29;20083;-69
2022/11/08 08:03:34;;;;;;;9.65;2.85;;;12.80;99.90;;;;;;4776666;30;20048;-69
2022/11/08 08:06:00;;;;;;;7.05;2.15;;;12.80;99.90;;;;;;4775866;30;20059;-69
2022/11/08 08:08:26;;;;;;;8.70;2.15;;;12.80;99.90;;;;;;4776224;30;20040;-66
2022/11/08 08:10:56;;;;;;;4.97;1.98;;;12.70;99.90;;;;;;4775969;30;20160;-68
2022/11/08 08:13:21;;;;;;;8.38;2.13;;;12.80;99.90;;;;;;4776758;30;20047;-69
2022/11/08 08:15:47;;;;;;;7.47;2.40;;;12.80;99.90;;;;;;4776326;30;20484;-68
2022/11/08 08:18:13;;;;;;;8.23;2.00;;;12.80;99.90;;;;;;4776350;30;20039;-68
2022/11/08 08:20:38;;;;;;;9.35;1.88;;;12.90;99.90;;;;;;4776339;30;20040;-68
2022/11/08 08:23:05;;;;;;;6.07;1.80;;;12.90;99.90;;;;;;4775990;30;20056;-68
2022/11/08 08:25:31;;;;;;;12.75;2.33;;;12.90;99.90;;;;;;4776110;30;20047;-68
2022/11/08 08:28:01;;;;;;;5.80;1.92;;;13.00;99.90;;;;;;4775908;30;20055;-68
2022/11/08 08:30:29;;;;;;;6.85;1.73;;;12.90;99.90;;;;;;4775980;30;20055;-68
2022/11/08 08:33:13;;;;;;;4.90;1.70;;;12.90;99.90;;;;;;4775237;30;20044;-68
2022/11/08 08:35:39;;;;;;;8.15;1.83;;;12.90;99.90;;;;;;4775376;30;20044;-69
2022/11/08 08:38:06;;;;;;;9.50;2.20;;;12.90;99.90;;;;;;4775668;30;20457;-69
2022/11/08 08:40:32;;;;;;;8.75;2.10;;;12.90;99.90;;;;;;4775749;30;20392;-68
2022/11/08 08:42:59;;;;;;;7.03;2.20;;;12.90;99.90;;;;;;4774649;30;20051;-69
2022/11/08 08:45:26;;;;;;;9.32;2.03;;;12.90;99.90;;;;;;4759891;30;20056;-68
2022/11/08 08:47:53;;;;;;;5.20;1.48;;;13.10;99.90;;;;;;4775580;30;20047;-68
2022/11/08 08:50:19;;;;;;;7.28;1.77;;;13.10;99.90;;;;;;4775478;30;20048;-69
2022/11/08 08:52:45;;;;;;;7.20;1.80;;;13.20;99.90;;;;;;4774313;30;20055;-69
2022/11/08 08:55:11;;;;;;;6.18;1.75;;;13.30;99.90;;;;;;4775658;30;20070;-69
2022/11/08 08:57:36;;;;;;;5.63;1.70;;;13.30;99.90;;;;;;4774344;30;20059;-70
2022/11/08 09:00:03;;;;;;;3.13;1.63;;;13.40;99.90;;;;;;4774624;30;20115;-68
2022/11/08 09:02:29;;;;;;;3.80;1.48;;;13.40;99.90;;;;;;4775336;30;20048;-68
2022/11/08 09:04:54;;;;;;;5.47;1.85;;;13.40;99.90;;;;;;4775514;30;20043;-68
2022/11/08 09:07:20;;;;;;;4.32;1.55;;;13.30;99.90;;;;;;4773821;30;20108;-68
2022/11/08 09:09:46;;;;;;;5.93;1.83;;;13.30;99.90;;;;;;4774081;30;20059;-67
2022/11/08 09:12:11;;;;;;;4.72;1.70;;;13.50;99.90;;;;;;4773922;30;20062;-68
2022/11/08 09:14:37;;;;;;;6.60;1.80;;;13.50;99.90;;;;;;4773968;30;20035;-68
2022/11/08 09:17:03;;;;;;;9.13;1.85;;;13.80;99.90;;;;;;4775271;30;20137;-67
2022/11/08 09:19:28;;;;;;;5.40;1.67;;;13.80;99.90;;;;;;4775066;30;20346;-68
2022/11/08 09:21:54;;;;;;;4.15;1.42;;;13.90;99.90;;;;;;4775073;30;20048;-69
2022/11/08 09:24:20;;;;;;;5.93;1.67;;;13.90;99.90;;;;;;4774069;30;20044;-68
2022/11/08 09:26:45;;;;;;;5.80;1.60;;;13.80;99.90;;;;;;4775079;30;20101;-68
2022/11/08 09:29:11;;;;;;;5.15;1.50;;;13.80;99.90;;;;;;4775089;30;20350;-68
2022/11/08 09:31:37;;;;;;;5.25;2.03;;;13.90;99.90;;;;;;4774877;30;20055;-68
2022/11/08 09:34:02;;;;;;;5.38;1.77;;;14.00;99.90;;;;;;4774172;30;20048;-68
2022/11/08 09:36:28;;;;;;;3.40;1.80;;;14.10;99.90;;;;;;4773383;30;20048;-68
2022/11/08 09:38:54;;;;;;;5.32;1.88;;;14.10;99.90;;;;;;4774754;30;20035;-68
2022/11/08 09:41:35;;;;;;;7.75;1.63;;;14.20;99.90;;;;;;4774533;30;20051;-69
2022/11/08 09:44:33;;;;;;;3.97;1.40;;;14.10;99.90;;;;;;4773606;30;20060;-69
2022/11/08 09:47:08;;;;;;;7.38;1.92;;;14.10;99.90;;;;;;4774636;30;20051;-69
2022/11/08 09:49:44;;;;;;;5.28;1.75;;;14.10;99.90;;;;;;4774517;30;20043;-69
2022/11/08 09:52:20;;;;;;;8.48;1.90;;;14.30;99.90;;;;;;4774848;30;20119;-69
2022/11/08 09:54:47;;;;;;;;;;;14.30;99.90;;;;;;4774135;30;20330;-69
2022/11/08 09:57:26;;;;;;;5.10;1.58;;;14.20;99.90;;;;;;4774851;30;19925;-69
2022/11/08 10:00:03;;;;;;;6.43;1.58;;;14.30;99.90;;;;;;4773749;30;20094;-69
2022/11/08 10:02:30;;;;;;;7.47;1.73;;;14.30;99.90;;;;;;4774424;30;20083;-68
2022/11/08 10:05:05;;;;;;;8.88;1.67;;;14.40;99.90;;;;;;4774513;30;20058;-69
2022/11/08 10:07:55;;;;;;;4.78;2.05;;;14.60;99.90;;;;;;4774191;30;20439;-69
2022/11/08 10:10:54;;;;;;;5.50;1.60;;;14.60;99.90;;;;;;4773960;30;20062;-69
2022/11/08 10:13:53;;;;;;;6.90;1.80;;;14.60;99.90;;;;;;4774270;30;20433;-68
2022/11/08 10:16:46;;;;;;;3.55;1.48;;;14.50;99.90;;;;;;4774091;30;20055;-68
2022/11/08 10:19:34;;;;;;;5.85;1.80;;;14.50;99.90;;;;;;4773848;30;20055;-66
2022/11/08 10:22:02;;;;;;;4.72;1.80;;;14.50;99.90;;;;;;4774136;30;20044;-66
2022/11/08 10:24:44;;;;;;;4.68;1.70;;;14.50;99.90;;;;;;4772742;30;20442;-67
2022/11/08 10:27:20;;;;;;;4.47;1.60;;;14.50;99.90;;;;;;4773259;30;20039;-67
2022/11/08 10:29:52;;;;;;;5.22;1.83;;;14.60;99.90;;;;;;4776754;30;20066;-68
2022/11/08 10:32:22;;;;;;;3.50;1.45;;;14.70;99.90;;;;;;4790226;30;20126;-69
2022/11/08 10:35:12;;;;;;;7.63;2.60;;;14.50;99.90;;;;;;4791963;29;20044;-68
2022/11/08 10:37:42;;;;;;;5.68;1.67;;;14.60;99.90;;;;;;4790964;30;20039;-69
2022/11/08 10:40:26;;;;;;;4.45;1.98;;;14.70;99.90;;;;;;4790762;30;20089;-70
2022/11/08 10:43:01;;;;;;;3.22;1.60;;;14.80;99.90;;;;;;4791866;29;20048;-68
2022/11/08 10:45:26;;;;;;;4.15;1.80;;;14.70;99.90;;;;;;4791739;29;20496;-69
2022/11/08 10:47:53;;;;;;;2.75;1.50;;;14.70;99.90;;;;;;4791437;29;20130;-69
2022/11/08 10:50:29;;;;;;;5.53;1.67;;;14.70;99.90;;;;;;4791364;29;20065;-68
2022/11/08 10:52:59;;;;;;;5.00;1.88;;;14.70;99.90;;;;;;4791790;29;20039;-68
2022/11/08 10:55:29;;;;;;;5.18;1.70;;;14.80;99.90;;;;;;4791439;29;20051;-70
2022/11/08 10:57:56;;;;;;;5.50;1.77;;;14.80;99.90;;;;;;4791504;29;20341;-68
2022/11/08 11:00:22;;;;;;;6.03;1.75;;;14.80;99.90;;;;;;4790289;30;20107;-69
2022/11/08 11:03:27;;;;;;;4.68;1.70;;;14.70;99.60;;;;;;4791486;29;20057;-70
2022/11/08 11:06:03;;;;;;;3.58;1.73;;;14.60;99.70;;;;;;4791173;29;20058;-68
2022/11/08 11:08:29;;;;;;;4.07;1.58;;;14.70;99.90;;;;;;4791404;29;20330;-68
2022/11/08 11:10:55;;;;;;;4.70;1.63;;;14.70;99.80;;;;;;4791093;29;20063;-67
2022/11/08 11:13:26;;;;;;;3.72;1.48;;;14.70;99.90;;;;;;4791319;29;20139;-67
2022/11/08 11:15:51;;;;;;;5.72;1.58;;;14.80;99.70;;;;;;4791310;29;20445;-70
2022/11/08 11:18:38;;;;;;;3.55;1.52;;;14.70;99.70;;;;;;4791160;29;20078;-67
2022/11/08 11:21:03;;;;;;;;;;;14.70;99.70;;;;;;4791603;29;20134;-67
2022/11/08 11:23:53;;;;;;;4.97;1.63;;;14.80;99.90;;;;;;4791462;29;20017;-67
2022/11/08 11:26:28;;;;;;;5.18;1.88;;;14.80;99.70;;;;;;4791244;29;20044;-68
2022/11/08 11:29:00;;;;;;;5.45;1.67;;;14.80;99.80;;;;;;4790072;30;20126;-68
2022/11/08 11:31:26;;;;;;;3.45;1.50;;;14.90;99.60;;;;;;4791144;29;20047;-68
2022/11/08 11:33:52;;;;;;;7.40;2.00;;;15.00;99.90;;;;;;4791180;29;20079;-68
2022/11/08 11:36:20;;;;;;;4.00;1.60;;;14.90;99.40;;;;;;4792203;29;20050;-68
2022/11/08 11:39:05;;;;;;;4.20;1.65;;;15.00;99.70;;;;;;4794731;29;20050;-68
2022/11/08 11:41:54;;;;;;;5.65;1.50;;;15.10;99.60;;;;;;4794889;29;20054;-68
2022/11/08 11:44:24;;;;;;;7.82;1.70;;;15.20;99.80;;;;;;4794577;29;20047;-67
2022/11/08 11:46:54;;;;;;;10.40;1.50;;;15.20;99.50;;;;;;4794713;29;20047;-68
2022/11/08 11:49:21;;;;;;;5.93;1.70;;;15.20;99.60;;;;;;4794569;29;20055;-68
2022/11/08 11:51:51;;;;;;;5.65;1.73;;;15.00;99.30;;;;;;4794554;29;20140;-68
2022/11/08 11:54:17;;;;;;;4.20;1.45;;;15.00;99.40;;;;;;4778662;30;20130;-68
2022/11/08 11:56:54;;;;;;;3.28;1.20;;;15.00;99.30;;;;;;4773482;30;20126;-68
2022/11/08 11:59:26;;;;;;;5.38;1.30;;;15.00;99.60;;;;;;4784373;29;20079;-68
2022/11/08 12:02:16;;;;;;;2.92;1.10;;;15.10;99.10;;;;;;4775266;30;20128;-68
2022/11/08 12:04:58;;;;;;;3.58;1.42;;;15.20;99.40;;;;;;4774972;30;20580;-68
2022/11/08 12:07:34;;;;;;;4.88;1.55;;;15.30;99.30;;;;;;4793598;30;20047;-68
2022/11/08 12:10:15;;;;;;;4.05;1.50;;;15.40;99.40;;;;;;4789863;30;20058;-70
2022/11/08 12:12:59;;;;;;;3.65;1.70;;;15.40;99.10;;;;;;4790059;30;20047;-69
2022/11/08 12:15:41;;;;;;;5.75;1.63;;;15.60;99.40;;;;;;4789822;30;20081;-69
2022/11/08 12:18:44;;;;;;;7.25;1.30;;;15.90;98.90;;;;;;4793733;29;20039;-68
2022/11/08 12:21:47;;;;;;;8.52;1.75;;;15.90;98.50;;;;;;4794019;30;20078;-68
2022/11/08 12:24:41;;;;;;;6.95;1.92;;;16.20;98.70;;;;;;4793878;29;20071;-69
2022/11/08 12:27:22;;;;;;;4.63;1.40;;;16.30;98.60;;;;;;4788661;30;20445;-70
2022/11/08 12:30:02;;;;;;;3.25;1.60;;;16.30;98.60;;;;;;4793812;30;20047;-70
2022/11/08 12:32:39;;;;;;;4.68;1.48;;;16.10;98.50;;;;;;4794118;30;20082;-70
2022/11/08 12:35:37;;;;;;;4.32;1.48;;;16.00;98.60;;;;;;4793953;30;20112;-70
2022/11/08 12:38:22;;;;;;;4.63;1.40;;;16.10;99.00;;;;;;4793592;29;20422;-71
2022/11/08 12:41:05;;;;;;;4.03;1.40;;;16.10;98.70;;;;;;4794115;29;20051;-69
2022/11/08 12:44:02;;;;;;;4.00;1.55;;;16.00;99.00;;;;;;4793732;30;20511;-69
2022/11/08 12:46:31;;;;;;;5.55;1.85;;;16.10;99.40;;;;;;4793792;29;20050;-69
2022/11/08 12:49:06;;;;;;;7.50;2.45;;;16.30;98.80;;;;;;4793575;29;20043;-69
2022/11/08 12:51:58;;;;;;;3.83;1.75;;;16.50;99.50;;;;;;4793478;29;20047;-69
2022/11/08 12:54:28;;;;;;;3.40;1.70;;;16.60;98.50;;;;;;4793448;29;20100;-69
2022/11/08 12:56:58;;;;;;;3.08;1.50;;;16.60;98.50;;;;;;4792486;30;20453;-69
2022/11/08 12:59:32;;;;;;;4.03;1.77;;;16.70;99.00;;;;;;4793671;29;20047;-69
2022/11/08 13:02:01;;;;;;;3.45;1.42;;;17.10;98.20;;;;;;4793398;29;20043;-69
2022/11/08 13:04:33;;;;;;;3.40;1.40;;;17.20;98.10;;;;;;4793481;29;20050;-68
2022/11/08 13:07:30;;;;;;;3.63;1.40;;;17.00;97.70;;;;;;4792771;30;20075;-69
2022/11/08 13:10:05;;;;;;;4.63;1.40;;;16.90;98.40;;;;;;4793116;30;20067;-69
2022/11/08 13:12:47;;;;;;;3.03;1.20;;;17.30;98.10;;;;;;4793257;30;20086;-69
2022/11/08 13:15:23;;;;;;;5.20;1.48;;;17.60;97.90;;;;;;4793255;29;20054;-69
2022/11/08 13:18:10;;;;;;;6.53;1.60;;;17.70;98.10;;;;;;4792962;29;20048;-69
2022/11/08 13:20:44;;;;;;;3.60;1.60;;;17.90;97.70;;;;;;4792006;30;20047;-69